createdAt,value
2019-04-10T00:01:48.948Z,78.56
2019-04-10T00:04:21.089Z,78.63
2019-04-10T00:06:52.907Z,78.76
2019-04-10T00:09:25.289Z,79.00
2019-04-10T00:11:57.123Z,79.22
2019-04-10T00:14:29.023Z,79.25
2019-04-10T00:17:00.946Z,79.24
2019-04-10T00:19:32.937Z,79.33
2019-04-10T00:22:06.182Z,79.54
2019-04-10T00:24:37.968Z,79.84
2019-04-10T00:27:10.387Z,80.12
2019-04-10T00:29:43.228Z,80.43
2019-04-10T00:32:16.133Z,80.67
2019-04-10T00:34:48.090Z,80.96
2019-04-10T00:37:26.230Z,81.21
2019-04-10T00:39:53.442Z,81.47
2019-04-10T00:42:26.101Z,81.64
2019-04-10T00:44:59.469Z,81.80
2019-04-10T00:47:31.689Z,82.37
2019-04-10T00:50:04.254Z,82.47
2019-04-10T00:52:36.578Z,82.59
2019-04-10T00:55:08.606Z,82.85
2019-04-10T00:57:41.189Z,83.39
2019-04-10T01:00:14.929Z,83.75
2019-04-10T01:02:47.103Z,83.83
2019-04-10T01:05:19.394Z,84.15
2019-04-10T01:07:51.946Z,84.20
2019-04-10T01:10:23.641Z,84.26
2019-04-10T01:12:56.579Z,84.42
2019-04-10T01:15:28.812Z,84.68
2019-04-10T01:18:00.689Z,84.65
2019-04-10T01:20:33.380Z,84.57
2019-04-10T01:23:05.826Z,84.62
2019-04-10T01:25:37.503Z,84.78
2019-04-10T01:28:09.882Z,84.61
2019-04-10T01:30:42.325Z,84.57
2019-04-10T01:33:14.484Z,84.66
2019-04-10T01:35:46.694Z,84.68
2019-04-10T01:38:19.629Z,84.72
2019-04-10T01:40:51.751Z,84.96
2019-04-10T01:43:24.511Z,85.08
2019-04-10T01:45:56.195Z,85.29
2019-04-10T01:48:28.154Z,85.39
2019-04-10T01:51:01.169Z,85.62
2019-04-10T01:53:33.547Z,85.78
2019-04-10T01:56:05.531Z,85.86
2019-04-10T01:58:38.102Z,85.98
2019-04-10T02:01:14.671Z,86.05
2019-04-10T02:03:46.629Z,86.14
2019-04-10T02:06:18.891Z,86.18
2019-04-10T02:08:51.550Z,86.14
2019-04-10T02:11:23.967Z,86.09
2019-04-10T02:13:56.870Z,86.12
2019-04-10T02:16:28.896Z,86.27
2019-04-10T02:19:01.654Z,86.53
2019-04-10T02:21:34.040Z,86.71
2019-04-10T02:24:05.694Z,86.78
2019-04-10T02:26:38.054Z,86.95
2019-04-10T02:29:09.723Z,86.95
2019-04-10T02:31:41.688Z,87.10
2019-04-10T02:34:14.917Z,87.26
2019-04-10T02:36:47.021Z,87.25
2019-04-10T02:39:28.957Z,87.27
2019-04-10T02:41:54.371Z,87.40
2019-04-10T02:44:28.339Z,87.50
2019-04-10T02:46:59.829Z,87.59
2019-04-10T02:49:32.064Z,87.50
2019-04-10T02:52:04.157Z,87.41
2019-04-10T02:54:37.486Z,87.42
2019-04-10T02:57:09.497Z,87.44
2019-04-10T02:59:43.168Z,87.47
2019-04-10T03:02:16.197Z,87.40
2019-04-10T03:04:49.123Z,87.41
2019-04-10T03:07:22.131Z,87.27
2019-04-10T03:10:05.773Z,87.17
2019-04-10T03:12:28.425Z,87.13
2019-04-10T03:15:01.132Z,87.16
2019-04-10T03:17:36.686Z,87.20
2019-04-10T03:20:09.957Z,87.10
2019-04-10T03:22:43.119Z,87.08
2019-04-10T03:25:14.963Z,87.05
2019-04-10T03:27:46.956Z,87.03
2019-04-10T03:30:21.029Z,87.02
2019-04-10T03:33:09.382Z,87.07
2019-04-10T03:35:45.215Z,87.20
2019-04-10T03:38:18.164Z,87.22
2019-04-10T03:40:49.968Z,87.19
2019-04-10T03:43:21.833Z,87.15
2019-04-10T03:45:55.112Z,87.18
2019-04-10T03:48:27.209Z,87.25
2019-04-10T03:50:59.058Z,87.32
2019-04-10T03:53:32.070Z,87.35
2019-04-10T03:56:03.709Z,87.30
2019-04-10T03:58:35.679Z,87.11
2019-04-10T04:01:07.427Z,86.90
2019-04-10T04:03:40.513Z,86.49
2019-04-10T04:06:12.254Z,86.04
2019-04-10T04:08:44.346Z,85.62
2019-04-10T04:11:15.991Z,85.10
2019-04-10T04:13:48.012Z,84.40
2019-04-10T04:16:20.957Z,83.81
2019-04-10T04:18:53.365Z,83.12
2019-04-10T04:21:25.854Z,82.35
2019-04-10T04:23:57.575Z,81.92
2019-04-10T04:26:29.591Z,81.17
2019-04-10T04:29:03.032Z,80.68
2019-04-10T04:31:35.403Z,80.27
2019-04-10T04:34:07.170Z,79.93
2019-04-10T04:36:39.131Z,79.72
2019-04-10T04:39:19.869Z,79.22
2019-04-10T04:41:45.621Z,78.69
2019-04-10T04:44:18.103Z,78.15
2019-04-10T04:46:50.570Z,76.85
2019-04-10T04:49:22.536Z,76.40
2019-04-10T04:51:54.683Z,75.72
2019-04-10T04:54:26.588Z,75.04
2019-04-10T04:56:58.442Z,74.46
2019-04-10T04:59:30.500Z,74.43
2019-04-10T05:02:02.157Z,73.31
2019-04-10T05:04:35.467Z,72.55
2019-04-10T05:07:08.262Z,71.93
2019-04-10T05:09:40.790Z,71.70
2019-04-10T05:12:13.468Z,71.42
2019-04-10T05:14:46.210Z,70.84
2019-04-10T05:17:18.409Z,70.02
2019-04-10T05:19:50.466Z,68.92
2019-04-10T05:22:22.383Z,68.97
2019-04-10T05:24:54.458Z,68.98
2019-04-10T05:27:27.947Z,68.75
2019-04-10T05:30:00.002Z,68.32
2019-04-10T05:32:32.857Z,67.52
2019-04-10T05:35:08.483Z,67.47
2019-04-10T05:37:40.129Z,66.94
2019-04-10T05:40:12.297Z,66.04
2019-04-10T05:42:44.967Z,65.41
2019-04-10T05:45:17.016Z,63.96
2019-04-10T05:47:48.788Z,63.60
2019-04-10T05:50:21.546Z,63.11
2019-04-10T05:52:53.938Z,62.89
2019-04-10T05:55:26.641Z,62.74
2019-04-10T05:57:59.445Z,62.33
2019-04-10T06:00:32.565Z,61.97
2019-04-10T06:03:04.562Z,62.37
2019-04-10T06:05:36.432Z,62.25
2019-04-10T06:08:08.594Z,61.80
2019-04-10T06:10:41.576Z,60.98
2019-04-10T06:13:13.443Z,60.22
2019-04-10T06:15:45.460Z,60.39
2019-04-10T06:18:18.746Z,59.63
2019-04-10T06:20:50.516Z,59.07
2019-04-10T06:23:23.386Z,59.33
2019-04-10T06:25:56.326Z,58.60
2019-04-10T06:28:30.600Z,58.32
2019-04-10T06:31:01.395Z,58.08
2019-04-10T06:33:33.999Z,58.21
2019-04-10T06:36:05.860Z,57.96
2019-04-10T06:38:37.366Z,57.70
2019-04-10T06:41:10.448Z,57.49
2019-04-10T06:43:43.431Z,57.24
2019-04-10T06:46:15.334Z,57.63
2019-04-10T06:48:47.938Z,57.86
2019-04-10T06:51:22.332Z,58.50
2019-04-10T06:54:00.833Z,59.05
2019-04-10T06:56:27.287Z,59.82
2019-04-10T06:59:00.350Z,59.98
2019-04-10T07:01:41.072Z,60.16
2019-04-10T07:04:08.005Z,60.88
2019-04-10T07:06:50.048Z,61.25
2019-04-10T07:09:13.933Z,60.97
2019-04-10T07:11:47.930Z,61.14
2019-04-10T07:14:20.607Z,61.17
2019-04-10T07:16:52.780Z,61.58
2019-04-10T07:19:24.590Z,62.19
2019-04-10T07:21:58.832Z,62.62
2019-04-10T07:24:34.538Z,61.94
2019-04-10T07:27:04.627Z,60.84
2019-04-10T07:29:36.393Z,60.94
2019-04-10T07:32:10.637Z,61.33
2019-04-10T07:34:42.520Z,60.50
2019-04-10T07:37:17.709Z,60.01
2019-04-10T07:39:47.530Z,59.89
2019-04-10T07:42:26.738Z,59.70
2019-04-10T07:44:56.262Z,60.24
2019-04-10T07:47:27.237Z,60.00
2019-04-10T07:49:59.898Z,60.09
2019-04-10T07:52:33.029Z,59.07
2019-04-10T07:55:06.674Z,58.75
2019-04-10T07:57:38.582Z,58.54
2019-04-10T08:00:12.446Z,58.34
2019-04-10T08:02:44.469Z,57.99
2019-04-10T08:05:16.653Z,57.21
2019-04-10T08:07:48.597Z,57.29
2019-04-10T08:10:20.565Z,57.61
2019-04-10T08:12:54.193Z,57.70
2019-04-10T08:15:27.265Z,56.87
2019-04-10T08:17:58.911Z,56.67
2019-04-10T08:20:30.729Z,56.26
2019-04-10T08:23:03.616Z,56.03
2019-04-10T08:25:35.423Z,56.27
2019-04-10T08:28:07.484Z,56.25
2019-04-10T08:30:39.788Z,56.15
2019-04-10T08:33:11.996Z,56.11
2019-04-10T08:35:43.635Z,54.70
2019-04-10T08:38:15.556Z,54.53
2019-04-10T08:40:48.203Z,54.12
2019-04-10T08:43:20.266Z,53.87
2019-04-10T08:45:53.427Z,53.48
2019-04-10T08:48:27.612Z,53.21
2019-04-10T08:50:58.952Z,53.70
2019-04-10T08:53:30.821Z,53.66
2019-04-10T08:56:02.513Z,53.39
2019-04-10T08:58:35.023Z,53.37
2019-04-10T09:01:09.078Z,52.40
2019-04-10T09:03:44.311Z,52.50
2019-04-10T09:06:17.433Z,52.01
2019-04-10T09:08:50.956Z,51.55
2019-04-10T09:11:25.451Z,50.90
2019-04-10T09:13:56.898Z,49.76
2019-04-10T09:16:28.870Z,50.33
2019-04-10T09:19:01.380Z,50.98
2019-04-10T09:21:33.179Z,49.54
2019-04-10T09:24:05.143Z,49.34
2019-04-10T09:26:38.205Z,49.39
2019-04-10T09:29:10.094Z,49.50
2019-04-10T09:31:41.955Z,48.91
2019-04-10T09:34:13.892Z,48.44
2019-04-10T09:36:45.884Z,47.96
2019-04-10T09:39:17.650Z,48.19
2019-04-10T09:41:50.151Z,46.69
2019-04-10T09:44:22.921Z,46.76
2019-04-10T09:46:55.714Z,45.74
2019-04-10T09:49:35.636Z,46.32
2019-04-10T09:52:00.754Z,46.59
2019-04-10T09:54:32.966Z,45.42
2019-04-10T09:57:04.994Z,44.31
2019-04-10T09:59:39.570Z,44.32
2019-04-10T10:02:11.201Z,44.65
2019-04-10T10:04:43.880Z,45.68
2019-04-10T10:07:16.420Z,44.53
2019-04-10T10:09:49.261Z,41.78
2019-04-10T10:12:21.174Z,43.03
2019-04-10T10:14:53.880Z,41.07
2019-04-10T10:17:25.717Z,41.89
2019-04-10T10:19:57.685Z,40.87
2019-04-10T10:22:30.914Z,41.56
2019-04-10T10:25:03.161Z,41.01
2019-04-10T10:27:36.473Z,40.35
2019-04-10T10:30:09.912Z,41.24
2019-04-10T10:32:42.315Z,41.14
2019-04-10T10:35:15.041Z,40.19
2019-04-10T10:37:47.064Z,39.29
2019-04-10T10:40:19.357Z,38.99
2019-04-10T10:42:51.903Z,40.22
2019-04-10T10:45:24.894Z,39.64
2019-04-10T10:47:56.814Z,39.10
2019-04-10T10:50:29.024Z,39.31
2019-04-10T10:53:00.817Z,37.39
2019-04-10T10:55:33.579Z,36.94
2019-04-10T10:58:06.361Z,36.27
2019-04-10T11:00:38.999Z,35.89
2019-04-10T11:03:11.010Z,36.96
2019-04-10T11:05:44.424Z,38.37
2019-04-10T11:08:17.460Z,37.53
2019-04-10T11:10:54.059Z,39.07
2019-04-10T11:13:22.769Z,37.39
2019-04-10T11:15:54.623Z,35.52
2019-04-10T11:18:26.691Z,36.39
2019-04-10T11:21:04.117Z,37.58
2019-04-10T11:23:31.805Z,37.62
2019-04-10T11:26:04.664Z,37.84
2019-04-10T11:28:36.889Z,38.21
2019-04-10T11:31:09.281Z,37.92
2019-04-10T11:33:41.227Z,39.46
2019-04-10T11:36:14.916Z,37.97
2019-04-10T11:38:46.811Z,38.82
2019-04-10T11:41:19.359Z,38.11
2019-04-10T11:43:53.351Z,37.93
2019-04-10T11:46:30.992Z,37.71
2019-04-10T11:49:00.690Z,38.06
2019-04-10T11:51:35.660Z,38.72
2019-04-10T11:54:10.917Z,39.50
2019-04-10T11:56:39.054Z,38.16
2019-04-10T11:59:12.350Z,37.20
2019-04-10T12:01:46.370Z,36.95
2019-04-10T12:04:20.049Z,36.33
2019-04-10T12:06:55.021Z,37.31
2019-04-10T12:10:16.980Z,37.00
2019-04-10T12:11:57.902Z,36.55
2019-04-10T12:14:30.027Z,36.76
2019-04-10T12:17:03.260Z,37.11
2019-04-10T12:19:35.027Z,37.35
2019-04-10T12:22:07.487Z,37.26
2019-04-10T12:24:40.456Z,37.91
2019-04-10T12:27:12.763Z,38.36
2019-04-10T12:29:45.484Z,38.62
2019-04-10T12:32:18.684Z,38.33
2019-04-10T12:34:50.867Z,37.72
2019-04-10T12:37:23.594Z,36.40
2019-04-10T12:39:55.764Z,37.45
2019-04-10T12:42:28.149Z,37.00
2019-04-10T12:44:59.999Z,39.00
2019-04-10T12:47:32.241Z,35.45
2019-04-10T12:50:08.072Z,35.52
2019-04-10T12:52:40.898Z,36.85
2019-04-10T12:55:13.077Z,37.53
2019-04-10T12:57:45.416Z,36.45
2019-04-10T13:00:20.039Z,35.26
2019-04-10T13:02:52.441Z,35.16
2019-04-10T13:05:25.120Z,35.42
2019-04-10T13:07:56.760Z,36.00
2019-04-10T13:10:29.509Z,37.31
2019-04-10T13:13:01.975Z,38.33
2019-04-10T13:15:33.550Z,38.46
2019-04-10T13:18:05.979Z,38.50
2019-04-10T13:20:37.889Z,42.01
2019-04-10T13:23:10.788Z,46.88
2019-04-10T13:25:43.880Z,49.08
2019-04-10T13:28:17.005Z,49.07
2019-04-10T13:30:53.769Z,48.64
2019-04-10T13:33:22.601Z,47.87
2019-04-10T13:35:55.350Z,48.22
2019-04-10T13:38:32.345Z,46.46
2019-04-10T13:41:01.688Z,47.61
2019-04-10T13:43:33.909Z,48.77
2019-04-10T13:46:06.769Z,47.88
2019-04-10T13:48:39.705Z,48.62
2019-04-10T13:51:13.007Z,49.72
2019-04-10T13:53:44.699Z,49.42
2019-04-10T13:56:17.031Z,49.43
2019-04-10T13:58:49.082Z,49.00
2019-04-10T14:01:23.071Z,50.00
2019-04-10T14:03:54.710Z,49.11
2019-04-10T14:06:27.493Z,47.95
2019-04-10T14:09:17.622Z,46.85
2019-04-10T14:11:35.333Z,42.04
2019-04-10T14:14:07.095Z,41.87
2019-04-10T14:16:39.101Z,42.89
2019-04-10T14:19:12.908Z,41.98
2019-04-10T14:21:45.079Z,42.47
2019-04-10T14:24:17.875Z,42.33
2019-04-10T14:26:53.538Z,41.90
2019-04-10T14:29:24.788Z,43.04
2019-04-10T14:32:00.872Z,44.10
2019-04-10T14:34:34.519Z,45.25
2019-04-10T14:37:07.597Z,44.73
2019-04-10T14:39:40.831Z,45.03
2019-04-10T14:42:14.066Z,46.07
2019-04-10T14:44:46.421Z,45.49
2019-04-10T14:47:19.179Z,45.72
2019-04-10T14:49:53.376Z,47.32
2019-04-10T14:52:25.377Z,47.55
2019-04-10T14:54:57.509Z,47.23
2019-04-10T14:57:30.763Z,48.65
2019-04-10T15:00:02.642Z,47.04
2019-04-10T15:02:36.887Z,46.93
2019-04-10T15:05:09.979Z,47.43
2019-04-10T15:07:42.794Z,48.30
2019-04-10T15:10:14.997Z,49.54
2019-04-10T15:12:47.934Z,50.07
2019-04-10T15:15:20.549Z,50.20
2019-04-10T15:17:52.225Z,50.35
2019-04-10T15:20:24.998Z,50.73
2019-04-10T15:22:56.765Z,50.85
2019-04-10T15:25:28.834Z,50.54
2019-04-10T15:28:00.703Z,49.98
2019-04-10T15:30:32.898Z,50.10
2019-04-10T15:33:04.639Z,51.17
2019-04-10T15:35:36.493Z,53.28
2019-04-10T15:38:09.450Z,56.47
2019-04-10T15:40:42.167Z,58.54
2019-04-10T15:43:14.133Z,61.90
2019-04-10T15:45:46.348Z,63.20
2019-04-10T15:48:18.826Z,63.67
2019-04-10T15:50:51.696Z,63.04
2019-04-10T15:53:24.402Z,64.31
2019-04-10T15:55:56.507Z,65.10
2019-04-10T15:58:28.272Z,67.14
2019-04-10T16:01:01.161Z,68.44
2019-04-10T16:03:33.125Z,69.16
2019-04-10T16:06:06.077Z,68.57
2019-04-10T16:08:38.617Z,67.67
2019-04-10T16:11:28.156Z,66.80
2019-04-10T16:14:03.085Z,66.64
2019-04-10T16:16:37.540Z,67.92
2019-04-10T16:19:20.493Z,67.22
2019-04-10T16:21:52.728Z,66.49
2019-04-10T16:24:24.925Z,66.48
2019-04-10T16:26:57.875Z,66.76
2019-04-10T16:29:29.606Z,66.64
2019-04-10T16:32:02.118Z,65.54
2019-04-10T16:34:34.513Z,64.75
2019-04-10T16:37:06.528Z,64.71
2019-04-10T16:39:38.608Z,65.19
2019-04-10T16:42:10.666Z,65.43
2019-04-10T16:44:43.874Z,65.42
2019-04-10T16:47:15.714Z,66.27
2019-04-10T16:49:48.656Z,66.67
2019-04-10T16:52:20.956Z,66.93
2019-04-10T16:54:53.443Z,66.81
2019-04-10T16:57:25.418Z,66.16
2019-04-10T16:59:59.143Z,65.84
2019-04-10T17:02:31.719Z,65.60
2019-04-10T17:05:03.949Z,65.64
2019-04-10T17:07:35.993Z,66.19
2019-04-10T17:10:17.713Z,66.32
2019-04-10T17:12:44.541Z,66.07
2019-04-10T17:15:17.877Z,66.48
2019-04-10T17:17:50.676Z,66.89
2019-04-10T17:20:24.487Z,67.16
2019-04-10T17:22:56.591Z,67.65
2019-04-10T17:25:28.591Z,67.80
2019-04-10T17:28:01.779Z,68.03
2019-04-10T17:30:33.884Z,68.33
2019-04-10T17:33:07.101Z,69.02
2019-04-10T17:35:39.915Z,69.27
2019-04-10T17:38:12.111Z,69.45
2019-04-10T17:40:50.107Z,69.80
2019-04-10T17:43:18.930Z,70.25
2019-04-10T17:45:51.040Z,70.15
2019-04-10T17:48:22.858Z,70.49
2019-04-10T17:50:55.327Z,70.44
2019-04-10T17:53:27.268Z,70.58
2019-04-10T17:56:00.056Z,71.42
2019-04-10T17:58:31.862Z,72.00
2019-04-10T18:01:05.309Z,72.31
2019-04-10T18:03:46.323Z,72.81
2019-04-10T18:06:11.047Z,73.42
2019-04-10T18:08:43.159Z,74.25
2019-04-10T18:11:16.220Z,74.70
2019-04-10T18:13:49.255Z,75.07
2019-04-10T18:16:22.065Z,75.66
2019-04-10T18:18:53.986Z,76.30
2019-04-10T18:21:25.838Z,76.94
2019-04-10T18:23:59.985Z,77.32
2019-04-10T18:26:32.027Z,77.83
2019-04-10T18:29:03.881Z,78.57
2019-04-10T18:31:36.784Z,79.02
2019-04-10T18:34:11.001Z,79.38
2019-04-10T18:36:42.860Z,79.47
2019-04-10T18:39:17.165Z,79.62
2019-04-10T18:41:49.127Z,79.82
2019-04-10T18:44:21.194Z,79.99
2019-04-10T18:46:52.859Z,80.04
2019-04-10T18:49:24.718Z,80.40
2019-04-10T18:51:56.684Z,80.62
2019-04-10T18:54:29.775Z,81.28
2019-04-10T18:57:02.053Z,81.03
2019-04-10T18:59:44.938Z,81.26
2019-04-10T19:02:21.528Z,80.96
2019-04-10T19:05:01.497Z,80.68
2019-04-10T19:07:34.325Z,80.15
2019-04-10T19:10:06.393Z,79.64
2019-04-10T19:12:39.108Z,79.16
2019-04-10T19:15:10.820Z,78.81
2019-04-10T19:17:43.545Z,78.57
2019-04-10T19:20:15.825Z,78.30
2019-04-10T19:22:48.595Z,77.97
2019-04-10T19:25:20.981Z,77.86
2019-04-10T19:27:52.947Z,77.79
2019-04-10T19:30:26.738Z,77.73
2019-04-10T19:32:59.568Z,77.85
2019-04-10T19:35:31.293Z,77.93
2019-04-10T19:38:03.262Z,78.14
2019-04-10T19:40:36.968Z,78.41
2019-04-10T19:43:10.234Z,78.71
2019-04-10T19:45:43.914Z,78.89
2019-04-10T19:48:17.147Z,78.95
2019-04-10T19:50:49.886Z,78.89
2019-04-10T19:53:21.804Z,79.24
2019-04-10T19:55:55.982Z,79.30
2019-04-10T19:58:28.191Z,79.69
2019-04-10T20:01:01.098Z,80.04
2019-04-10T20:03:33.900Z,80.29
2019-04-10T20:06:06.143Z,80.56
2019-04-10T20:08:37.811Z,80.60
2019-04-10T20:11:10.803Z,80.79
2019-04-10T20:13:42.954Z,81.11
2019-04-10T20:16:15.296Z,81.03
2019-04-10T20:18:48.725Z,81.26
2019-04-10T20:21:20.671Z,81.17
2019-04-10T20:23:52.751Z,81.22
2019-04-10T20:26:25.242Z,81.36
2019-04-10T20:28:57.630Z,81.14
2019-04-10T20:31:31.329Z,81.13
2019-04-10T20:34:03.688Z,80.96
2019-04-10T20:36:37.273Z,80.89
2019-04-10T20:39:12.748Z,80.84
2019-04-10T20:41:51.993Z,80.70
2019-04-10T20:44:18.799Z,80.72
2019-04-10T20:46:50.872Z,80.73
2019-04-10T20:49:22.640Z,80.81
2019-04-10T20:51:55.721Z,80.89
2019-04-10T20:54:27.410Z,80.96
2019-04-10T20:56:59.447Z,81.15
2019-04-10T20:59:33.357Z,81.28
2019-04-10T21:02:06.165Z,81.81
2019-04-10T21:04:37.906Z,81.94
2019-04-10T21:07:10.484Z,82.21
2019-04-10T21:09:43.879Z,82.42
2019-04-10T21:12:19.312Z,82.82
2019-04-10T21:14:49.446Z,82.96
2019-04-10T21:17:22.643Z,83.14
2019-04-10T21:19:54.399Z,83.31
2019-04-10T21:22:26.510Z,83.37
2019-04-10T21:24:58.632Z,83.66
2019-04-10T21:27:31.980Z,83.57
2019-04-10T21:30:05.403Z,83.74
2019-04-10T21:32:47.936Z,83.72
2019-04-10T21:35:30.541Z,83.95
2019-04-10T21:38:02.640Z,83.99
2019-04-10T21:40:34.932Z,84.22
2019-04-10T21:43:07.036Z,84.23
2019-04-10T21:45:39.177Z,84.76
2019-04-10T21:48:11.001Z,84.61
2019-04-10T21:50:43.939Z,84.86
2019-04-10T21:53:16.429Z,84.86
2019-04-10T21:55:48.359Z,85.06
2019-04-10T21:58:20.475Z,85.07
2019-04-10T22:00:57.187Z,84.98
2019-04-10T22:03:31.596Z,84.89
2019-04-10T22:06:21.898Z,84.95
2019-04-10T22:08:56.159Z,85.20
2019-04-10T22:11:28.730Z,85.33
2019-04-10T22:14:00.530Z,85.40
2019-04-10T22:16:33.703Z,85.63
2019-04-10T22:19:05.926Z,86.33
2019-04-10T22:21:39.710Z,86.39
2019-04-10T22:24:11.658Z,86.38
2019-04-10T22:26:44.544Z,87.03
2019-04-10T22:29:17.625Z,87.49
2019-04-10T22:31:49.585Z,87.92
2019-04-10T22:34:21.387Z,87.73
2019-04-10T22:36:54.027Z,87.79
2019-04-10T22:39:25.989Z,87.89
2019-04-10T22:41:58.858Z,88.19
2019-04-10T22:44:37.536Z,88.25
2019-04-10T22:47:05.177Z,88.46
2019-04-10T22:49:37.102Z,88.59
2019-04-10T22:52:08.948Z,88.75
2019-04-10T22:54:40.853Z,88.73
2019-04-10T22:57:12.710Z,88.91
2019-04-10T22:59:44.704Z,88.87
2019-04-10T23:02:16.609Z,88.87
2019-04-10T23:04:48.807Z,88.92
2019-04-10T23:07:20.567Z,88.92
2019-04-10T23:09:52.949Z,88.87
2019-04-10T23:12:24.738Z,89.00
2019-04-10T23:14:56.771Z,88.98
2019-04-10T23:17:28.589Z,89.06
2019-04-10T23:20:00.707Z,88.98
2019-04-10T23:22:33.340Z,89.11
2019-04-10T23:25:07.909Z,88.97
2019-04-10T23:27:39.874Z,88.80
2019-04-10T23:30:18.680Z,88.58
2019-04-10T23:32:51.380Z,88.40
2019-04-10T23:35:23.310Z,88.27
2019-04-10T23:37:55.285Z,88.09
2019-04-10T23:40:27.372Z,87.97
2019-04-10T23:43:07.711Z,87.88
2019-04-10T23:45:33.521Z,87.81
2019-04-10T23:48:06.583Z,87.75
2019-04-10T23:50:38.623Z,87.75
2019-04-10T23:53:10.469Z,87.78
2019-04-10T23:55:43.456Z,87.74
2019-04-10T23:58:15.965Z,87.74
